DAFH

Hassi R'Mel Airport

Algeria
METAR DAFH 241100Z 09006KT CAVOK 28/12 Q1024
Observed Flight Rules
Sep-24 @ 11:00 UTC (31 minutes ago) Visual Flight Rules
Wind Visibility Clouds
90° at 6 knots 10,000+ meters
  • Clear skies
Temperatures Readings
Current 28°C / 82°F
Dewpoint 12°C / 54°F
Humidity 37%
Altimeter 30.24" Hg
Pressure 1024 hPa
Elevation 774
METAR DAFH 241100Z 09006KT CAVOK 28/12 Q1024
Observed Flight Rules
Sep-24 @ 11:00 UTC
(31 minutes ago)
VFR
Wind Visibility
90° at 6 knots 10,000+ meters
Clouds
  • Clear skies
Temperature Dewpoint
28°C / 82°F 12°C / 54°F
Humidity Altimeter Pressure
37% 30.24" Hg 1024 hPa